CEB909 RPLL-RPVE
Flight info
| Callsign | CEB909 |
|---|---|
| Flight time | 0h 36m |
| Altitude | 23000 |
| Route | RDVXVERDE/13 VERDE W24 TAPER TAPER7A |
| Aircraft | A20N/M-SDE2E3FGHIRWXY/LB1 |
Departure
| Time | 2026-05-08 05:43 |
|---|---|
| Airport | Ninoy Aquino International Airport (RPLL) |
Arrival
| Time | 2026-05-08 06:19 |
|---|---|
| Airport | Godofredo P. Ramos Airport (RPVE) |
| Time | Latitude | Longitude | Altitude | Speed | Heading |
|---|---|---|---|---|---|
| 2026-05-08 05:34 | 14.52079 | 121.00944 | 81 ft | 0 kts | 314° |
| 2026-05-08 05:36 | 14.52080 | 121.00944 | 81 ft | 0 kts | 314° |
| 2026-05-08 05:36 | 14.52095 | 121.00929 | 82 ft | 4 kts | 315° |
| 2026-05-08 05:37 | 14.52132 | 121.00890 | 81 ft | 10 kts | 315° |
| 2026-05-08 05:37 | 14.52192 | 121.00827 | 81 ft | 13 kts | 315° |
| 2026-05-08 05:37 | 14.52274 | 121.00744 | 82 ft | 18 kts | 315° |
| 2026-05-08 05:37 | 14.52376 | 121.00639 | 81 ft | 22 kts | 314° |
| 2026-05-08 05:38 | 14.52452 | 121.00560 | 81 ft | 11 kts | 315° |
| 2026-05-08 05:38 | 14.52487 | 121.00503 | 81 ft | 9 kts | 262° |
| 2026-05-08 05:38 | 14.52458 | 121.00456 | 81 ft | 4 kts | 225° |
| 2026-05-08 05:38 | 14.52435 | 121.00431 | 81 ft | 5 kts | 225° |
| 2026-05-08 05:39 | 14.52390 | 121.00405 | 81 ft | 10 kts | 185° |
| 2026-05-08 05:39 | 14.52320 | 121.00450 | 81 ft | 14 kts | 134° |
| 2026-05-08 05:39 | 14.52281 | 121.00491 | 81 ft | 0 kts | 135° |
| 2026-05-08 05:42 | 14.52280 | 121.00491 | 81 ft | 1 kts | 135° |
| 2026-05-08 05:42 | 14.52122 | 121.00655 | 82 ft | 71 kts | 134° |
| 2026-05-08 05:43 | 14.51584 | 121.01208 | 82 ft | 141 kts | 136° |
| 2026-05-08 05:43 | 14.50797 | 121.01971 | 521 ft | 158 kts | 139° |
| 2026-05-08 05:43 | 14.49990 | 121.02747 | 1208 ft | 163 kts | 133° |
| 2026-05-08 05:43 | 14.49109 | 121.03569 | 1804 ft | 176 kts | 135° |
| 2026-05-08 05:44 | 14.48171 | 121.04439 | 2207 ft | 189 kts | 134° |
| 2026-05-08 05:44 | 14.47133 | 121.05389 | 2578 ft | 206 kts | 135° |
| 2026-05-08 05:44 | 14.45918 | 121.06300 | 2898 ft | 231 kts | 156° |
| 2026-05-08 05:44 | 14.44245 | 121.06514 | 3235 ft | 256 kts | 180° |
| 2026-05-08 05:45 | 14.42389 | 121.06359 | 3669 ft | 273 kts | 182° |
| 2026-05-08 05:45 | 14.40469 | 121.06178 | 4310 ft | 278 kts | 182° |
| 2026-05-08 05:45 | 14.38562 | 121.06033 | 5039 ft | 280 kts | 181° |
| 2026-05-08 05:45 | 14.36605 | 121.05919 | 5780 ft | 283 kts | 180° |
| 2026-05-08 05:46 | 14.34607 | 121.05824 | 6519 ft | 286 kts | 180° |
| 2026-05-08 05:46 | 14.32616 | 121.05743 | 7233 ft | 290 kts | 180° |
| 2026-05-08 05:46 | 14.30621 | 121.05670 | 7960 ft | 293 kts | 180° |
| 2026-05-08 05:46 | 14.28544 | 121.05599 | 8669 ft | 297 kts | 180° |
| 2026-05-08 05:47 | 14.26466 | 121.05531 | 9380 ft | 300 kts | 179° |
| 2026-05-08 05:47 | 14.24381 | 121.05466 | 10060 ft | 303 kts | 180° |
| 2026-05-08 05:47 | 14.22234 | 121.05400 | 10559 ft | 313 kts | 180° |
| 2026-05-08 05:47 | 14.19998 | 121.05333 | 10857 ft | 330 kts | 180° |
| 2026-05-08 05:48 | 14.17615 | 121.05260 | 11286 ft | 341 kts | 180° |
| 2026-05-08 05:48 | 14.15273 | 121.05188 | 12202 ft | 334 kts | 180° |
| 2026-05-08 05:48 | 14.12991 | 121.05115 | 13196 ft | 323 kts | 180° |
| 2026-05-08 05:48 | 14.10796 | 121.05045 | 14141 ft | 312 kts | 180° |
| 2026-05-08 05:49 | 14.08655 | 121.04975 | 15071 ft | 301 kts | 180° |
| 2026-05-08 05:49 | 14.06599 | 121.04909 | 15853 ft | 294 kts | 180° |
| 2026-05-08 05:49 | 14.04544 | 121.04846 | 16418 ft | 295 kts | 179° |
| 2026-05-08 05:49 | 14.02491 | 121.04783 | 16907 ft | 298 kts | 179° |
| 2026-05-08 05:50 | 14.00397 | 121.04720 | 17423 ft | 300 kts | 179° |
| 2026-05-08 05:50 | 13.98297 | 121.04656 | 17947 ft | 302 kts | 179° |
| 2026-05-08 05:50 | 13.96257 | 121.04596 | 18427 ft | 305 kts | 179° |
| 2026-05-08 05:50 | 13.94136 | 121.04533 | 18892 ft | 307 kts | 179° |
| 2026-05-08 05:51 | 13.91970 | 121.04468 | 19374 ft | 309 kts | 179° |
| 2026-05-08 05:51 | 13.89809 | 121.04403 | 19854 ft | 312 kts | 180° |
| 2026-05-08 05:51 | 13.87614 | 121.04335 | 20338 ft | 315 kts | 180° |
| 2026-05-08 05:51 | 13.85415 | 121.04268 | 20797 ft | 318 kts | 180° |
| 2026-05-08 05:52 | 13.83186 | 121.04199 | 21261 ft | 321 kts | 180° |
| 2026-05-08 05:52 | 13.81181 | 121.04137 | 21674 ft | 323 kts | 180° |
| 2026-05-08 05:52 | 13.78915 | 121.04067 | 22126 ft | 326 kts | 180° |
| 2026-05-08 05:52 | 13.76626 | 121.03996 | 22571 ft | 330 kts | 180° |
| 2026-05-08 05:53 | 13.74278 | 121.03924 | 22836 ft | 340 kts | 180° |
| 2026-05-08 05:53 | 13.71848 | 121.03849 | 22841 ft | 358 kts | 180° |
| 2026-05-08 05:53 | 13.69321 | 121.03772 | 22846 ft | 375 kts | 180° |
| 2026-05-08 05:53 | 13.66606 | 121.03690 | 22838 ft | 392 kts | 180° |
| 2026-05-08 05:54 | 13.63820 | 121.03603 | 22835 ft | 407 kts | 181° |
| 2026-05-08 05:54 | 13.60966 | 121.03515 | 22832 ft | 412 kts | 181° |
| 2026-05-08 05:54 | 13.58090 | 121.03426 | 22834 ft | 412 kts | 181° |
| 2026-05-08 05:54 | 13.55222 | 121.03337 | 22838 ft | 412 kts | 181° |
| 2026-05-08 05:55 | 13.52342 | 121.03399 | 22829 ft | 411 kts | 171° |
| 2026-05-08 05:55 | 13.49560 | 121.04102 | 22838 ft | 410 kts | 158° |
| 2026-05-08 05:55 | 13.47023 | 121.05431 | 22858 ft | 408 kts | 146° |
| 2026-05-08 05:55 | 13.44651 | 121.07088 | 22881 ft | 408 kts | 143° |
| 2026-05-08 05:56 | 13.42314 | 121.08778 | 22899 ft | 408 kts | 143° |
| 2026-05-08 05:56 | 13.39965 | 121.10466 | 22910 ft | 408 kts | 143° |
| 2026-05-08 05:56 | 13.37644 | 121.12113 | 22919 ft | 408 kts | 144° |
| 2026-05-08 05:56 | 13.35295 | 121.13768 | 22925 ft | 408 kts | 144° |
| 2026-05-08 05:57 | 13.32930 | 121.15428 | 22931 ft | 407 kts | 144° |
| 2026-05-08 05:57 | 13.30593 | 121.17066 | 22930 ft | 407 kts | 144° |
| 2026-05-08 05:57 | 13.28204 | 121.18742 | 22931 ft | 407 kts | 144° |
| 2026-05-08 05:57 | 13.25872 | 121.20379 | 22922 ft | 407 kts | 144° |
| 2026-05-08 05:58 | 13.23515 | 121.22032 | 22913 ft | 408 kts | 144° |
| 2026-05-08 05:58 | 13.21174 | 121.23675 | 22893 ft | 408 kts | 144° |
| 2026-05-08 05:58 | 13.18796 | 121.25340 | 22879 ft | 408 kts | 144° |
| 2026-05-08 05:58 | 13.16464 | 121.26975 | 22878 ft | 408 kts | 144° |
| 2026-05-08 05:59 | 13.14099 | 121.28632 | 22882 ft | 408 kts | 144° |
| 2026-05-08 05:59 | 13.11745 | 121.30280 | 22884 ft | 408 kts | 144° |
| 2026-05-08 05:59 | 13.09392 | 121.31928 | 22889 ft | 408 kts | 144° |
| 2026-05-08 05:59 | 13.07036 | 121.33577 | 22893 ft | 408 kts | 144° |
| 2026-05-08 06:00 | 13.04692 | 121.35219 | 22892 ft | 408 kts | 144° |
| 2026-05-08 06:00 | 13.02340 | 121.36865 | 22896 ft | 408 kts | 144° |
| 2026-05-08 06:00 | 12.99969 | 121.38523 | 22898 ft | 408 kts | 144° |
| 2026-05-08 06:00 | 12.97629 | 121.40160 | 22891 ft | 408 kts | 144° |
| 2026-05-08 06:01 | 12.95258 | 121.41818 | 22889 ft | 408 kts | 144° |
| 2026-05-08 06:01 | 12.92924 | 121.43450 | 22875 ft | 408 kts | 144° |
| 2026-05-08 06:01 | 12.90564 | 121.45099 | 22483 ft | 408 kts | 144° |
| 2026-05-08 06:01 | 12.88222 | 121.46735 | 22028 ft | 405 kts | 144° |
| 2026-05-08 06:02 | 12.85929 | 121.48336 | 21576 ft | 402 kts | 144° |
| 2026-05-08 06:02 | 12.83611 | 121.49953 | 21125 ft | 399 kts | 144° |
| 2026-05-08 06:02 | 12.81330 | 121.51547 | 20667 ft | 396 kts | 144° |
| 2026-05-08 06:02 | 12.79050 | 121.53139 | 20211 ft | 393 kts | 143° |
| 2026-05-08 06:03 | 12.76802 | 121.54708 | 19757 ft | 390 kts | 143° |
| 2026-05-08 06:03 | 12.74551 | 121.56280 | 19316 ft | 387 kts | 143° |
| 2026-05-08 06:03 | 12.72353 | 121.57813 | 18862 ft | 385 kts | 143° |
| 2026-05-08 06:03 | 12.70124 | 121.59369 | 18400 ft | 382 kts | 143° |
| 2026-05-08 06:04 | 12.67934 | 121.60896 | 17958 ft | 380 kts | 143° |
| 2026-05-08 06:04 | 12.65760 | 121.62414 | 17501 ft | 377 kts | 143° |
| 2026-05-08 06:04 | 12.63617 | 121.63908 | 17043 ft | 375 kts | 143° |
| 2026-05-08 06:04 | 12.61461 | 121.65413 | 16595 ft | 372 kts | 143° |
| 2026-05-08 06:05 | 12.59305 | 121.66917 | 16150 ft | 371 kts | 143° |
| 2026-05-08 06:05 | 12.57195 | 121.68388 | 15689 ft | 369 kts | 143° |
| 2026-05-08 06:05 | 12.55051 | 121.69882 | 15219 ft | 367 kts | 143° |
| 2026-05-08 06:05 | 12.52962 | 121.71339 | 14766 ft | 366 kts | 143° |
| 2026-05-08 06:06 | 12.50855 | 121.72807 | 14312 ft | 364 kts | 143° |
| 2026-05-08 06:06 | 12.48754 | 121.74271 | 13851 ft | 362 kts | 143° |
| 2026-05-08 06:06 | 12.46687 | 121.75709 | 13401 ft | 360 kts | 143° |
| 2026-05-08 06:06 | 12.44633 | 121.77137 | 12955 ft | 359 kts | 143° |
| 2026-05-08 06:07 | 12.42569 | 121.78574 | 12485 ft | 357 kts | 143° |
| 2026-05-08 06:07 | 12.40518 | 121.79999 | 12022 ft | 355 kts | 143° |
| 2026-05-08 06:07 | 12.38461 | 121.81413 | 11543 ft | 355 kts | 146° |
| 2026-05-08 06:07 | 12.36164 | 121.82333 | 11047 ft | 360 kts | 168° |
| 2026-05-08 06:08 | 12.33688 | 121.82262 | 10636 ft | 361 kts | 188° |
| 2026-05-08 06:08 | 12.31240 | 121.81715 | 10296 ft | 355 kts | 191° |
| 2026-05-08 06:08 | 12.28849 | 121.81156 | 10181 ft | 342 kts | 190° |
| 2026-05-08 06:08 | 12.26550 | 121.80626 | 10053 ft | 329 kts | 190° |
| 2026-05-08 06:09 | 12.24376 | 121.80135 | 9928 ft | 318 kts | 189° |
| 2026-05-08 06:10 | 12.16010 | 121.78305 | 8523 ft | 310 kts | 189° |
| 2026-05-08 06:10 | 12.13913 | 121.77850 | 8207 ft | 306 kts | 189° |
| 2026-05-08 06:10 | 12.11826 | 121.77396 | 7871 ft | 303 kts | 188° |
| 2026-05-08 06:10 | 12.09762 | 121.76949 | 7461 ft | 303 kts | 189° |
| 2026-05-08 06:11 | 12.07697 | 121.76502 | 7096 ft | 302 kts | 188° |
| 2026-05-08 06:11 | 12.05641 | 121.76056 | 6735 ft | 300 kts | 188° |
| 2026-05-08 06:11 | 12.03601 | 121.75615 | 6390 ft | 298 kts | 188° |
| 2026-05-08 06:11 | 12.01591 | 121.75178 | 6066 ft | 291 kts | 188° |
| 2026-05-08 06:12 | 11.99641 | 121.74754 | 5747 ft | 283 kts | 188° |
| 2026-05-08 06:12 | 11.98334 | 121.74471 | 5535 ft | 280 kts | 188° |
| 2026-05-08 06:12 | 11.97364 | 121.74262 | 5372 ft | 279 kts | 188° |
| 2026-05-08 06:12 | 11.95424 | 121.73843 | 5046 ft | 278 kts | 188° |
| 2026-05-08 06:13 | 11.93842 | 121.73500 | 4782 ft | 277 kts | 188° |
| 2026-05-08 06:13 | 11.91709 | 121.73127 | 4398 ft | 272 kts | 175° |
| 2026-05-08 06:13 | 11.89897 | 121.73469 | 4071 ft | 262 kts | 152° |
| 2026-05-08 06:13 | 11.88294 | 121.74272 | 3910 ft | 250 kts | 147° |
| 2026-05-08 06:14 | 11.86793 | 121.75083 | 3892 ft | 236 kts | 147° |
| 2026-05-08 06:14 | 11.85354 | 121.75855 | 3861 ft | 226 kts | 147° |
| 2026-05-08 06:14 | 11.84160 | 121.76754 | 3742 ft | 207 kts | 118° |
| 2026-05-08 06:14 | 11.83846 | 121.78069 | 3590 ft | 192 kts | 77° |
| 2026-05-08 06:15 | 11.84305 | 121.79352 | 3394 ft | 189 kts | 64° |
| 2026-05-08 06:15 | 11.84935 | 121.80521 | 3103 ft | 187 kts | 62° |
| 2026-05-08 06:15 | 11.85566 | 121.81675 | 2803 ft | 183 kts | 62° |
| 2026-05-08 06:15 | 11.86155 | 121.82806 | 2559 ft | 178 kts | 63° |
| 2026-05-08 06:16 | 11.86712 | 121.83913 | 2332 ft | 171 kts | 64° |
| 2026-05-08 06:16 | 11.87234 | 121.84965 | 2108 ft | 159 kts | 64° |
| 2026-05-08 06:16 | 11.87717 | 121.85937 | 1903 ft | 146 kts | 63° |
| 2026-05-08 06:16 | 11.88171 | 121.86849 | 1755 ft | 142 kts | 63° |
| 2026-05-08 06:17 | 11.89049 | 121.88606 | 1349 ft | 135 kts | 63° |
| 2026-05-08 06:17 | 11.89477 | 121.89460 | 1184 ft | 135 kts | 64° |
| 2026-05-08 06:17 | 11.89904 | 121.90311 | 1000 ft | 134 kts | 64° |
| 2026-05-08 06:18 | 11.90333 | 121.91167 | 809 ft | 134 kts | 64° |
| 2026-05-08 06:18 | 11.90760 | 121.92018 | 644 ft | 133 kts | 64° |
| 2026-05-08 06:18 | 11.91185 | 121.92863 | 445 ft | 133 kts | 64° |
| 2026-05-08 06:18 | 11.91610 | 121.93707 | 293 ft | 132 kts | 65° |
| 2026-05-08 06:19 | 11.92025 | 121.94539 | 146 ft | 131 kts | 64° |
| 2026-05-08 06:19 | 11.92441 | 121.95366 | 30 ft | 125 kts | 64° |
| 2026-05-08 06:19 | 11.92710 | 121.95904 | 30 ft | 49 kts | 63° |
| 2026-05-08 06:19 | 11.92799 | 121.96094 | 30 ft | 11 kts | 96° |
| 2026-05-08 06:20 | 11.92739 | 121.96144 | 30 ft | 12 kts | 153° |
| 2026-05-08 06:20 | 11.92670 | 121.96182 | 30 ft | 8 kts | 151° |
| 2026-05-08 06:20 | 11.92641 | 121.96207 | 30 ft | 5 kts | 108° |
| 2026-05-08 06:20 | 11.92653 | 121.96246 | 30 ft | 6 kts | 63° |
| 2026-05-08 06:21 | 11.92675 | 121.96293 | 30 ft | 7 kts | 63° |
| 2026-05-08 06:21 | 11.92699 | 121.96343 | 30 ft | 7 kts | 64° |
| 2026-05-08 06:21 | 11.92723 | 121.96387 | 30 ft | 2 kts | 62° |
| 2026-05-08 06:21 | 11.92726 | 121.96392 | 30 ft | 2 kts | 63° |
| 2026-05-08 06:22 | 11.92724 | 121.96404 | 30 ft | 2 kts | 122° |
| 2026-05-08 06:22 | 11.92711 | 121.96413 | 30 ft | 3 kts | 148° |
| 2026-05-08 06:22 | 11.92691 | 121.96425 | 30 ft | 3 kts | 153° |
| 2026-05-08 06:22 | 11.92680 | 121.96430 | 30 ft | 1 kts | 153° |